createdAt,value
2023-05-15T00:38:54.187Z,3.65
2023-05-15T00:44:01.070Z,3.38
2023-05-15T00:49:13.317Z,3.28
2023-05-15T00:54:17.491Z,2.88
2023-05-15T00:59:21.956Z,3.40
2023-05-15T01:04:25.089Z,3.90
2023-05-15T01:09:32.299Z,4.88
2023-05-15T01:14:35.069Z,4.18
2023-05-15T01:19:37.962Z,3.38
2023-05-15T01:25:09.875Z,4.78
2023-05-15T01:30:23.137Z,4.88
2023-05-15T01:35:32.320Z,4.45
2023-05-15T01:40:35.725Z,5.10
2023-05-15T01:45:44.109Z,5.78
2023-05-15T01:50:48.333Z,5.20
2023-05-15T01:55:52.023Z,4.88
2023-05-15T02:00:57.016Z,4.47
2023-05-15T02:06:00.200Z,4.10
2023-05-15T02:11:04.424Z,5.63
2023-05-15T02:16:08.809Z,4.30
2023-05-15T02:21:11.678Z,3.70
2023-05-15T02:26:27.528Z,5.03
2023-05-15T02:31:46.291Z,4.35
2023-05-15T02:36:50.734Z,4.47
2023-05-15T02:41:54.913Z,4.18
2023-05-15T02:47:00.522Z,3.80
2023-05-15T02:52:03.349Z,4.43
2023-05-15T02:57:07.955Z,4.10
2023-05-15T03:02:12.005Z,4.75
2023-05-15T03:07:15.349Z,4.68
2023-05-15T03:12:18.075Z,7.15
2023-05-15T03:17:22.362Z,7.05
2023-05-15T03:22:25.232Z,6.70
2023-05-15T03:27:27.966Z,6.45
2023-05-15T03:32:32.127Z,6.35
2023-05-15T03:37:34.881Z,3.90
2023-05-15T03:42:37.589Z,3.45
2023-05-15T03:47:42.900Z,2.97
2023-05-15T03:52:45.840Z,4.05
2023-05-15T03:57:48.692Z,6.22
2023-05-15T04:02:52.883Z,6.65
2023-05-15T04:07:55.801Z,6.80
2023-05-15T04:12:58.824Z,12.57
2023-05-15T04:18:03.480Z,17.95
2023-05-15T04:23:06.523Z,23.33
2023-05-15T04:28:09.657Z,26.52
2023-05-15T04:33:13.922Z,28.58
2023-05-15T04:38:17.814Z,30.73
2023-05-15T04:43:21.471Z,30.73
2023-05-15T04:48:26.847Z,33.63
2023-05-15T04:53:29.603Z,37.22
2023-05-15T04:58:36.099Z,42.15
2023-05-15T05:03:40.271Z,41.77
2023-05-15T05:08:43.092Z,42.60
2023-05-15T05:13:48.023Z,46.58
2023-05-15T05:18:52.959Z,48.13
2023-05-15T05:23:56.370Z,48.75
2023-05-15T05:28:59.713Z,46.15
2023-05-15T05:34:03.867Z,47.08
2023-05-15T05:39:06.875Z,43.35
2023-05-15T05:44:09.708Z,45.63
2023-05-15T05:49:13.882Z,46.10
2023-05-15T05:54:18.925Z,42.60
2023-05-15T05:59:21.880Z,42.92
2023-05-15T06:04:29.329Z,43.67
2023-05-15T06:09:34.611Z,43.63
2023-05-15T06:14:37.942Z,42.63
2023-05-15T06:19:42.843Z,43.75
2023-05-15T06:24:45.940Z,42.88
2023-05-15T06:29:48.946Z,42.15
2023-05-15T06:34:53.080Z,42.42
2023-05-15T06:39:56.469Z,42.15
2023-05-15T06:45:03.393Z,42.65
2023-05-15T06:50:09.157Z,41.90
2023-05-15T06:55:11.961Z,40.47
2023-05-15T07:00:16.119Z,38.60
2023-05-15T07:05:21.816Z,38.60
2023-05-15T07:10:26.899Z,38.47
2023-05-15T07:15:30.000Z,36.42
2023-05-15T07:20:39.291Z,37.30
2023-05-15T07:25:43.494Z,37.15
2023-05-15T07:30:47.065Z,34.88
2023-05-15T07:35:53.028Z,36.65
2023-05-15T07:40:55.732Z,38.53
2023-05-15T07:45:58.575Z,38.80
2023-05-15T07:51:02.981Z,39.38
2023-05-15T07:56:06.777Z,34.70
2023-05-15T08:01:09.637Z,39.53
2023-05-15T08:06:13.799Z,42.15
2023-05-15T08:11:18.112Z,45.83
2023-05-15T08:16:23.570Z,43.03
2023-05-15T08:21:28.190Z,46.03
2023-05-15T08:26:30.870Z,48.08
2023-05-15T08:31:34.633Z,46.70
2023-05-15T08:36:39.998Z,45.90
2023-05-15T08:41:51.944Z,43.92
2023-05-15T08:46:58.039Z,47.08
2023-05-15T08:52:04.067Z,46.40
2023-05-15T08:57:07.298Z,43.85
2023-05-15T09:02:11.827Z,45.95
2023-05-15T09:07:17.154Z,44.03
2023-05-15T09:12:21.118Z,42.58
2023-05-15T09:17:24.725Z,38.78
2023-05-15T09:22:34.272Z,42.08
2023-05-15T09:27:43.906Z,41.80
2023-05-15T09:32:50.156Z,39.17
2023-05-15T09:38:00.979Z,41.50
2023-05-15T09:43:07.172Z,44.00
2023-05-15T09:48:14.039Z,48.33
2023-05-15T09:58:24.413Z,47.83
2023-05-15T10:03:28.985Z,48.90
2023-05-15T10:08:37.056Z,47.10
2023-05-15T10:13:39.837Z,48.80
2023-05-15T10:18:47.122Z,50.33
2023-05-15T10:23:53.689Z,50.13
2023-05-15T10:28:58.608Z,49.20
2023-05-15T10:34:04.895Z,43.00
2023-05-15T10:39:09.993Z,44.57
2023-05-15T10:44:14.189Z,39.42
2023-05-15T10:49:17.561Z,45.95
2023-05-15T10:54:23.315Z,41.78
2023-05-15T10:59:36.422Z,45.95
2023-05-15T11:04:40.040Z,40.80
2023-05-15T11:09:44.423Z,41.10
2023-05-15T11:15:21.062Z,36.60
2023-05-15T11:25:40.163Z,37.47
2023-05-15T11:30:44.136Z,38.55
2023-05-15T11:35:48.450Z,36.40
2023-05-15T11:40:58.094Z,37.20
2023-05-15T11:46:07.312Z,34.35
2023-05-15T11:51:21.026Z,31.25
2023-05-15T11:56:28.394Z,28.45
2023-05-15T12:01:41.244Z,29.60
2023-05-15T12:06:47.441Z,28.27
2023-05-15T12:11:54.622Z,27.92
2023-05-15T12:17:02.846Z,30.17
2023-05-15T12:22:06.963Z,25.98
2023-05-15T12:27:12.232Z,27.75
2023-05-15T12:32:17.572Z,27.80
2023-05-15T12:37:23.235Z,23.73
2023-05-15T12:42:29.215Z,24.52
2023-05-15T12:47:32.260Z,24.17
2023-05-15T12:52:37.007Z,22.65
2023-05-15T12:57:43.164Z,21.95
2023-05-15T13:02:48.688Z,21.15
2023-05-15T13:07:54.736Z,22.20
2023-05-15T13:13:00.724Z,19.60
2023-05-15T13:18:07.114Z,16.00
2023-05-15T13:23:11.200Z,14.85
2023-05-15T13:28:15.434Z,14.68
2023-05-15T13:33:18.358Z,13.05
2023-05-15T13:38:21.148Z,12.02
2023-05-15T13:43:26.548Z,11.55
2023-05-15T13:48:33.463Z,12.38
2023-05-15T13:53:40.987Z,10.73
2023-05-15T13:58:46.381Z,11.93
2023-05-15T14:08:54.353Z,14.00
2023-05-15T14:13:59.352Z,10.90
2023-05-15T14:19:02.450Z,8.30
2023-05-15T14:24:05.861Z,14.68
2023-05-15T14:29:12.584Z,10.52
2023-05-15T14:39:19.407Z,6.30
2023-05-15T14:44:23.578Z,5.97
2023-05-15T14:49:26.361Z,6.80
2023-05-15T14:54:31.941Z,5.95
2023-05-15T14:59:38.421Z,5.53
2023-05-15T15:04:41.219Z,5.55
2023-05-15T15:09:43.963Z,6.93
2023-05-15T15:14:48.407Z,7.20
2023-05-15T15:19:54.322Z,6.50
2023-05-15T15:24:59.804Z,6.75
2023-05-15T15:30:04.942Z,6.68
2023-05-15T15:35:08.415Z,6.05
2023-05-15T15:40:12.057Z,12.32
2023-05-15T15:45:16.222Z,5.53
2023-05-15T15:50:19.035Z,4.75
2023-05-15T15:55:23.504Z,5.40
2023-05-15T16:00:28.520Z,5.10
2023-05-15T16:05:33.557Z,5.00
2023-05-15T16:10:36.441Z,3.97
2023-05-15T16:15:40.592Z,4.20
2023-05-15T16:20:43.796Z,3.97
2023-05-15T16:25:46.545Z,4.63
2023-05-15T16:30:52.558Z,3.85
2023-05-15T16:35:56.049Z,4.38
2023-05-15T16:40:59.481Z,3.83
2023-05-15T16:46:04.410Z,3.80
2023-05-15T16:51:07.860Z,6.75
2023-05-15T16:56:12.153Z,4.97
2023-05-15T17:01:17.052Z,4.60
2023-05-15T17:06:20.441Z,4.18
2023-05-15T17:11:24.176Z,5.25
2023-05-15T17:16:29.662Z,9.88
2023-05-15T17:21:34.467Z,11.38
2023-05-15T17:26:38.590Z,11.73
2023-05-15T17:31:43.638Z,11.98
2023-05-15T17:36:46.531Z,14.70
2023-05-15T17:41:50.226Z,15.90
2023-05-15T17:46:57.205Z,15.25
2023-05-15T17:51:59.955Z,16.20
2023-05-15T17:57:05.497Z,16.75
2023-05-15T18:02:11.455Z,16.08
2023-05-15T18:07:14.429Z,14.50
2023-05-15T18:12:17.587Z,13.32
2023-05-15T18:17:21.705Z,13.55
2023-05-15T18:22:25.432Z,17.17
2023-05-15T18:27:29.411Z,17.67
2023-05-15T18:32:35.034Z,16.95
2023-05-15T18:37:37.819Z,16.00
2023-05-15T18:42:40.559Z,16.05
2023-05-15T18:47:45.025Z,15.50
2023-05-15T18:52:49.681Z,16.70
2023-05-15T18:57:52.372Z,15.80
2023-05-15T19:02:56.497Z,14.85
2023-05-15T19:07:59.339Z,13.77
2023-05-15T19:13:02.741Z,12.95
2023-05-15T19:18:07.891Z,15.60
2023-05-15T19:23:14.783Z,16.67
2023-05-15T19:28:17.520Z,16.37
2023-05-15T19:33:22.718Z,19.10
2023-05-15T19:38:25.500Z,18.52
2023-05-15T19:43:28.486Z,18.85
2023-05-15T19:48:32.974Z,20.33
2023-05-15T19:53:36.534Z,20.17
2023-05-15T19:58:40.998Z,22.05
2023-05-15T20:03:45.495Z,20.40
2023-05-15T20:08:49.282Z,19.45
2023-05-15T20:13:52.037Z,20.88
2023-05-15T20:18:58.264Z,22.33
2023-05-15T20:24:01.174Z,20.63
2023-05-15T20:29:05.962Z,22.13
2023-05-15T20:34:10.163Z,20.55
2023-05-15T20:39:14.070Z,21.85
2023-05-15T20:44:17.957Z,21.23
2023-05-15T20:49:22.577Z,22.88
2023-05-15T20:54:25.451Z,24.52
2023-05-15T20:59:28.263Z,23.45
2023-05-15T21:04:32.755Z,26.48
2023-05-15T21:09:36.741Z,26.35
2023-05-15T21:14:39.601Z,28.20
2023-05-15T21:19:43.825Z,33.00
2023-05-15T21:24:46.736Z,34.47
2023-05-15T21:29:50.371Z,38.03
2023-05-15T21:34:54.628Z,35.92
2023-05-15T21:39:57.374Z,38.60
2023-05-15T21:45:00.315Z,42.58
2023-05-15T21:50:06.322Z,41.58
2023-05-15T21:55:10.159Z,40.78
2023-05-15T22:00:14.780Z,40.00
2023-05-15T22:05:20.511Z,39.35
2023-05-15T22:10:23.435Z,40.90
2023-05-15T22:15:26.211Z,38.60
2023-05-15T22:20:30.516Z,35.50
2023-05-15T22:25:33.236Z,35.05
2023-05-15T22:30:36.051Z,33.80
2023-05-15T22:35:40.209Z,36.05
2023-05-15T22:40:42.953Z,34.83
2023-05-15T22:45:45.918Z,29.85
2023-05-15T22:50:52.189Z,27.80
2023-05-15T22:55:54.916Z,28.60
2023-05-15T23:00:58.007Z,25.48
2023-05-15T23:06:02.857Z,24.23
2023-05-15T23:11:05.839Z,22.70
2023-05-15T23:16:09.861Z,24.48
2023-05-15T23:21:14.130Z,24.80
2023-05-15T23:26:16.992Z,26.88
2023-05-15T23:31:19.958Z,25.67
2023-05-15T23:36:24.299Z,27.50
2023-05-15T23:41:27.062Z,26.15
2023-05-15T23:46:29.914Z,25.40
2023-05-15T23:51:34.033Z,24.65
2023-05-15T23:56:36.780Z,24.15
